sensor_id;sensor_type;location;lat;lon;timestamp;temperature;humidity
4604;DHT22;2314;48.272;11.562;2023-02-21T00:02:34;4.10;99.90
4604;DHT22;2314;48.272;11.562;2023-02-21T00:05:20;4.10;99.90
4604;DHT22;2314;48.272;11.562;2023-02-21T00:08:06;4.10;99.90
4604;DHT22;2314;48.272;11.562;2023-02-21T00:10:50;4.10;99.90
4604;DHT22;2314;48.272;11.562;2023-02-21T00:13:35;4.00;99.90
4604;DHT22;2314;48.272;11.562;2023-02-21T00:16:20;4.10;99.90
4604;DHT22;2314;48.272;11.562;2023-02-21T00:19:05;4.00;99.90
4604;DHT22;2314;48.272;11.562;2023-02-21T00:21:52;4.00;99.90
4604;DHT22;2314;48.272;11.562;2023-02-21T00:24:37;4.00;99.90
4604;DHT22;2314;48.272;11.562;2023-02-21T00:27:23;3.90;99.90
4604;DHT22;2314;48.272;11.562;2023-02-21T00:30:09;3.80;99.90
4604;DHT22;2314;48.272;11.562;2023-02-21T00:32:54;3.80;99.90
4604;DHT22;2314;48.272;11.562;2023-02-21T00:35:39;3.80;99.90
4604;DHT22;2314;48.272;11.562;2023-02-21T00:38:25;3.80;99.90
4604;DHT22;2314;48.272;11.562;2023-02-21T00:41:09;3.70;99.90
4604;DHT22;2314;48.272;11.562;2023-02-21T00:43:54;3.70;99.90
4604;DHT22;2314;48.272;11.562;2023-02-21T00:46:39;3.60;99.90
4604;DHT22;2314;48.272;11.562;2023-02-21T00:49:24;3.60;99.90
4604;DHT22;2314;48.272;11.562;2023-02-21T00:52:08;3.60;99.90
4604;DHT22;2314;48.272;11.562;2023-02-21T00:54:54;3.60;99.90
4604;DHT22;2314;48.272;11.562;2023-02-21T00:57:39;3.50;99.90
4604;DHT22;2314;48.272;11.562;2023-02-21T01:00:24;3.50;99.90
4604;DHT22;2314;48.272;11.562;2023-02-21T01:03:09;3.50;99.90
4604;DHT22;2314;48.272;11.562;2023-02-21T01:05:54;3.50;99.90
4604;DHT22;2314;48.272;11.562;2023-02-21T01:08:40;3.60;99.90
4604;DHT22;2314;48.272;11.562;2023-02-21T01:11:27;3.50;99.90
4604;DHT22;2314;48.272;11.562;2023-02-21T01:14:12;3.60;99.90
4604;DHT22;2314;48.272;11.562;2023-02-21T01:16:57;3.60;99.90
4604;DHT22;2314;48.272;11.562;2023-02-21T01:19:42;3.60;99.90
4604;DHT22;2314;48.272;11.562;2023-02-21T01:22:27;3.60;99.90
4604;DHT22;2314;48.272;11.562;2023-02-21T01:25:11;3.60;99.90
4604;DHT22;2314;48.272;11.562;2023-02-21T01:27:57;3.60;99.90
4604;DHT22;2314;48.272;11.562;2023-02-21T01:30:42;3.60;99.90
4604;DHT22;2314;48.272;11.562;2023-02-21T01:33:27;3.60;99.90
4604;DHT22;2314;48.272;11.562;2023-02-21T01:36:11;3.60;99.90
4604;DHT22;2314;48.272;11.562;2023-02-21T01:38:56;3.50;99.90
4604;DHT22;2314;48.272;11.562;2023-02-21T01:41:41;3.50;99.90
4604;DHT22;2314;48.272;11.562;2023-02-21T01:44:34;3.40;99.90
4604;DHT22;2314;48.272;11.562;2023-02-21T01:47:20;3.30;99.90
4604;DHT22;2314;48.272;11.562;2023-02-21T01:50:09;3.30;99.90
4604;DHT22;2314;48.272;11.562;2023-02-21T01:52:57;3.20;99.90
4604;DHT22;2314;48.272;11.562;2023-02-21T01:55:43;3.10;99.90
4604;DHT22;2314;48.272;11.562;2023-02-21T01:58:29;3.00;99.90
4604;DHT22;2314;48.272;11.562;2023-02-21T02:01:24;2.90;99.90
4604;DHT22;2314;48.272;11.562;2023-02-21T02:04:22;2.80;99.90
4604;DHT22;2314;48.272;11.562;2023-02-21T02:07:08;2.70;99.90
4604;DHT22;2314;48.272;11.562;2023-02-21T02:09:53;2.60;99.90
4604;DHT22;2314;48.272;11.562;2023-02-21T02:13:15;2.60;99.90
4604;DHT22;2314;48.272;11.562;2023-02-21T02:16:03;2.50;99.90
4604;DHT22;2314;48.272;11.562;2023-02-21T02:18:46;2.50;99.90
4604;DHT22;2314;48.272;11.562;2023-02-21T02:22:12;2.40;99.90
4604;DHT22;2314;48.272;11.562;2023-02-21T02:25:24;2.40;99.90
4604;DHT22;2314;48.272;11.562;2023-02-21T02:28:16;2.30;99.90
4604;DHT22;2314;48.272;11.562;2023-02-21T02:34:50;2.20;99.90
4604;DHT22;2314;48.272;11.562;2023-02-21T02:37:23;2.10;99.90
4604;DHT22;2314;48.272;11.562;2023-02-21T02:39:59;2.10;99.90
4604;DHT22;2314;48.272;11.562;2023-02-21T02:42:45;2.10;99.90
4604;DHT22;2314;48.272;11.562;2023-02-21T02:45:19;2.00;99.90
4604;DHT22;2314;48.272;11.562;2023-02-21T02:47:56;2.00;99.90
4604;DHT22;2314;48.272;11.562;2023-02-21T02:50:28;2.00;99.90
4604;DHT22;2314;48.272;11.562;2023-02-21T02:53:00;1.90;99.90
4604;DHT22;2314;48.272;11.562;2023-02-21T02:55:40;1.80;99.90
4604;DHT22;2314;48.272;11.562;2023-02-21T02:58:10;1.80;99.90
4604;DHT22;2314;48.272;11.562;2023-02-21T03:00:39;1.80;99.90
4604;DHT22;2314;48.272;11.562;2023-02-21T03:03:38;1.80;99.90
4604;DHT22;2314;48.272;11.562;2023-02-21T03:06:29;1.80;99.90
4604;DHT22;2314;48.272;11.562;2023-02-21T03:09:07;1.80;99.90
4604;DHT22;2314;48.272;11.562;2023-02-21T03:11:38;1.80;99.90
4604;DHT22;2314;48.272;11.562;2023-02-21T03:14:12;1.70;99.90
4604;DHT22;2314;48.272;11.562;2023-02-21T03:16:44;1.80;99.90
4604;DHT22;2314;48.272;11.562;2023-02-21T03:19:17;1.70;99.90
4604;DHT22;2314;48.272;11.562;2023-02-21T03:21:50;1.60;99.90
4604;DHT22;2314;48.272;11.562;2023-02-21T03:24:20;1.60;99.90
4604;DHT22;2314;48.272;11.562;2023-02-21T03:26:51;1.50;99.90
4604;DHT22;2314;48.272;11.562;2023-02-21T03:29:20;1.50;99.90
4604;DHT22;2314;48.272;11.562;2023-02-21T03:31:50;1.50;99.90
4604;DHT22;2314;48.272;11.562;2023-02-21T03:34:21;1.50;99.90
4604;DHT22;2314;48.272;11.562;2023-02-21T03:36:50;1.40;99.90
4604;DHT22;2314;48.272;11.562;2023-02-21T03:39:17;1.40;99.90
4604;DHT22;2314;48.272;11.562;2023-02-21T03:41:44;1.30;99.90
4604;DHT22;2314;48.272;11.562;2023-02-21T03:44:11;1.30;99.90
4604;DHT22;2314;48.272;11.562;2023-02-21T03:46:38;1.30;99.90
4604;DHT22;2314;48.272;11.562;2023-02-21T03:49:05;1.30;99.90
4604;DHT22;2314;48.272;11.562;2023-02-21T03:51:31;1.30;99.90
4604;DHT22;2314;48.272;11.562;2023-02-21T03:54:00;1.20;99.90
4604;DHT22;2314;48.272;11.562;2023-02-21T03:56:27;1.20;99.90
4604;DHT22;2314;48.272;11.562;2023-02-21T03:58:54;1.20;99.90
4604;DHT22;2314;48.272;11.562;2023-02-21T04:01:21;1.20;99.90
4604;DHT22;2314;48.272;11.562;2023-02-21T04:03:48;1.20;99.90
4604;DHT22;2314;48.272;11.562;2023-02-21T04:06:15;1.10;99.90
4604;DHT22;2314;48.272;11.562;2023-02-21T04:08:42;1.20;99.90
4604;DHT22;2314;48.272;11.562;2023-02-21T04:11:10;1.10;99.90
4604;DHT22;2314;48.272;11.562;2023-02-21T04:13:37;1.10;99.90
4604;DHT22;2314;48.272;11.562;2023-02-21T04:16:04;1.10;99.90
4604;DHT22;2314;48.272;11.562;2023-02-21T04:18:31;1.20;99.90
4604;DHT22;2314;48.272;11.562;2023-02-21T04:20:58;1.20;99.90
4604;DHT22;2314;48.272;11.562;2023-02-21T04:23:25;1.20;99.90
4604;DHT22;2314;48.272;11.562;2023-02-21T04:25:52;1.30;99.90
4604;DHT22;2314;48.272;11.562;2023-02-21T04:28:21;1.30;99.90
4604;DHT22;2314;48.272;11.562;2023-02-21T04:30:48;1.40;99.90
4604;DHT22;2314;48.272;11.562;2023-02-21T04:33:15;1.40;99.90
4604;DHT22;2314;48.272;11.562;2023-02-21T04:35:41;1.50;99.90
4604;DHT22;2314;48.272;11.562;2023-02-21T04:38:09;1.70;99.90
4604;DHT22;2314;48.272;11.562;2023-02-21T04:40:36;1.70;99.90
4604;DHT22;2314;48.272;11.562;2023-02-21T04:43:03;1.70;99.90
4604;DHT22;2314;48.272;11.562;2023-02-21T04:45:31;1.70;99.90
4604;DHT22;2314;48.272;11.562;2023-02-21T04:47:58;1.70;99.90
4604;DHT22;2314;48.272;11.562;2023-02-21T04:50:25;1.70;99.90
4604;DHT22;2314;48.272;11.562;2023-02-21T04:52:53;1.70;99.90
4604;DHT22;2314;48.272;11.562;2023-02-21T04:55:20;1.70;99.90
4604;DHT22;2314;48.272;11.562;2023-02-21T04:57:47;1.60;99.90
4604;DHT22;2314;48.272;11.562;2023-02-21T05:00:15;1.60;99.90
4604;DHT22;2314;48.272;11.562;2023-02-21T05:02:45;1.60;99.90
4604;DHT22;2314;48.272;11.562;2023-02-21T05:05:12;1.60;99.90
4604;DHT22;2314;48.272;11.562;2023-02-21T05:07:40;1.60;99.90
4604;DHT22;2314;48.272;11.562;2023-02-21T05:10:08;1.60;99.90
4604;DHT22;2314;48.272;11.562;2023-02-21T05:12:36;1.60;99.90
4604;DHT22;2314;48.272;11.562;2023-02-21T05:15:04;1.50;99.90
4604;DHT22;2314;48.272;11.562;2023-02-21T05:17:32;1.50;99.90
4604;DHT22;2314;48.272;11.562;2023-02-21T05:20:01;1.40;99.90
4604;DHT22;2314;48.272;11.562;2023-02-21T05:22:28;1.50;99.90
4604;DHT22;2314;48.272;11.562;2023-02-21T05:24:55;1.50;99.90
4604;DHT22;2314;48.272;11.562;2023-02-21T05:27:22;1.60;99.90
4604;DHT22;2314;48.272;11.562;2023-02-21T05:29:50;1.60;99.90
4604;DHT22;2314;48.272;11.562;2023-02-21T05:32:20;1.60;99.90
4604;DHT22;2314;48.272;11.562;2023-02-21T05:34:47;1.50;99.90
4604;DHT22;2314;48.272;11.562;2023-02-21T05:37:16;1.50;99.90
4604;DHT22;2314;48.272;11.562;2023-02-21T05:39:45;1.50;99.90
4604;DHT22;2314;48.272;11.562;2023-02-21T05:42:13;1.50;99.90
4604;DHT22;2314;48.272;11.562;2023-02-21T05:44:44;1.40;99.90
4604;DHT22;2314;48.272;11.562;2023-02-21T05:47:11;1.40;99.90
4604;DHT22;2314;48.272;11.562;2023-02-21T05:49:38;1.50;99.90
4604;DHT22;2314;48.272;11.562;2023-02-21T05:52:06;1.50;99.90
4604;DHT22;2314;48.272;11.562;2023-02-21T05:54:35;1.50;99.90
4604;DHT22;2314;48.272;11.562;2023-02-21T05:57:02;1.50;99.90
4604;DHT22;2314;48.272;11.562;2023-02-21T05:59:30;1.60;99.90
4604;DHT22;2314;48.272;11.562;2023-02-21T06:01:58;1.50;99.90
4604;DHT22;2314;48.272;11.562;2023-02-21T06:04:27;1.40;99.90
4604;DHT22;2314;48.272;11.562;2023-02-21T06:06:54;1.50;99.90
4604;DHT22;2314;48.272;11.562;2023-02-21T06:09:21;1.50;99.90
4604;DHT22;2314;48.272;11.562;2023-02-21T06:11:50;1.40;99.90
4604;DHT22;2314;48.272;11.562;2023-02-21T06:14:18;1.50;99.90
4604;DHT22;2314;48.272;11.562;2023-02-21T06:16:46;1.30;99.90
4604;DHT22;2314;48.272;11.562;2023-02-21T06:19:14;1.30;99.90
4604;DHT22;2314;48.272;11.562;2023-02-21T06:21:42;1.30;99.90
4604;DHT22;2314;48.272;11.562;2023-02-21T06:24:10;1.40;99.90
4604;DHT22;2314;48.272;11.562;2023-02-21T06:26:38;1.40;99.90
4604;DHT22;2314;48.272;11.562;2023-02-21T06:29:09;1.40;99.90
4604;DHT22;2314;48.272;11.562;2023-02-21T06:31:37;1.50;99.90
4604;DHT22;2314;48.272;11.562;2023-02-21T06:34:04;1.50;99.90
4604;DHT22;2314;48.272;11.562;2023-02-21T06:36:31;1.50;99.90
4604;DHT22;2314;48.272;11.562;2023-02-21T06:39:00;1.60;99.90
4604;DHT22;2314;48.272;11.562;2023-02-21T06:41:28;1.70;99.90
4604;DHT22;2314;48.272;11.562;2023-02-21T06:43:57;1.70;99.90
4604;DHT22;2314;48.272;11.562;2023-02-21T06:46:27;1.80;99.90
4604;DHT22;2314;48.272;11.562;2023-02-21T06:48:55;1.80;99.90
4604;DHT22;2314;48.272;11.562;2023-02-21T06:51:22;2.00;99.90
4604;DHT22;2314;48.272;11.562;2023-02-21T06:53:54;2.20;99.90
4604;DHT22;2314;48.272;11.562;2023-02-21T06:56:21;2.40;99.90
4604;DHT22;2314;48.272;11.562;2023-02-21T06:58:48;2.50;99.90
4604;DHT22;2314;48.272;11.562;2023-02-21T07:01:15;2.70;99.90
4604;DHT22;2314;48.272;11.562;2023-02-21T07:03:44;3.10;99.90
4604;DHT22;2314;48.272;11.562;2023-02-21T07:06:12;3.20;99.90
4604;DHT22;2314;48.272;11.562;2023-02-21T07:08:39;3.50;99.90
4604;DHT22;2314;48.272;11.562;2023-02-21T07:11:08;3.70;99.90
4604;DHT22;2314;48.272;11.562;2023-02-21T07:13:38;3.90;99.90
4604;DHT22;2314;48.272;11.562;2023-02-21T07:16:08;4.00;99.90
4604;DHT22;2314;48.272;11.562;2023-02-21T07:18:36;4.30;99.90
4604;DHT22;2314;48.272;11.562;2023-02-21T07:21:04;4.50;99.90
4604;DHT22;2314;48.272;11.562;2023-02-21T07:23:31;4.70;99.90
4604;DHT22;2314;48.272;11.562;2023-02-21T07:25:58;4.90;99.90
4604;DHT22;2314;48.272;11.562;2023-02-21T07:28:25;5.40;99.90
4604;DHT22;2314;48.272;11.562;2023-02-21T07:30:52;6.10;99.90
4604;DHT22;2314;48.272;11.562;2023-02-21T07:33:19;6.70;99.90
4604;DHT22;2314;48.272;11.562;2023-02-21T07:35:46;7.10;99.90
4604;DHT22;2314;48.272;11.562;2023-02-21T07:38:20;7.30;99.90
4604;DHT22;2314;48.272;11.562;2023-02-21T07:40:48;7.60;99.90
4604;DHT22;2314;48.272;11.562;2023-02-21T07:43:15;7.30;99.90
4604;DHT22;2314;48.272;11.562;2023-02-21T07:45:43;7.10;99.90
4604;DHT22;2314;48.272;11.562;2023-02-21T07:48:10;7.00;99.90
4604;DHT22;2314;48.272;11.562;2023-02-21T07:50:39;7.00;99.90
4604;DHT22;2314;48.272;11.562;2023-02-21T07:53:06;6.90;99.90
4604;DHT22;2314;48.272;11.562;2023-02-21T07:55:35;6.70;99.90
4604;DHT22;2314;48.272;11.562;2023-02-21T07:58:02;6.70;99.90
4604;DHT22;2314;48.272;11.562;2023-02-21T08:00:29;6.70;99.90
4604;DHT22;2314;48.272;11.562;2023-02-21T08:02:57;6.80;99.90
4604;DHT22;2314;48.272;11.562;2023-02-21T08:05:25;6.90;99.90
4604;DHT22;2314;48.272;11.562;2023-02-21T08:07:52;7.10;99.90
4604;DHT22;2314;48.272;11.562;2023-02-21T08:10:22;7.40;99.90
4604;DHT22;2314;48.272;11.562;2023-02-21T08:12:51;7.90;99.90
4604;DHT22;2314;48.272;11.562;2023-02-21T08:15:18;8.80;99.90
4604;DHT22;2314;48.272;11.562;2023-02-21T08:17:47;9.40;99.90
4604;DHT22;2314;48.272;11.562;2023-02-21T08:20:15;10.00;99.90
4604;DHT22;2314;48.272;11.562;2023-02-21T08:22:48;10.60;99.90
4604;DHT22;2314;48.272;11.562;2023-02-21T08:25:16;10.80;99.90
4604;DHT22;2314;48.272;11.562;2023-02-21T08:27:46;11.10;99.90
4604;DHT22;2314;48.272;11.562;2023-02-21T08:30:20;11.10;99.90
4604;DHT22;2314;48.272;11.562;2023-02-21T08:32:47;11.10;99.90
4604;DHT22;2314;48.272;11.562;2023-02-21T08:35:17;11.30;99.90
4604;DHT22;2314;48.272;11.562;2023-02-21T08:37:46;11.20;99.90
4604;DHT22;2314;48.272;11.562;2023-02-21T08:40:18;11.30;99.90
4604;DHT22;2314;48.272;11.562;2023-02-21T08:42:48;11.40;99.90
4604;DHT22;2314;48.272;11.562;2023-02-21T08:45:17;11.40;99.90
4604;DHT22;2314;48.272;11.562;2023-02-21T08:47:46;11.30;99.90
4604;DHT22;2314;48.272;11.562;2023-02-21T08:50:14;11.20;99.90
4604;DHT22;2314;48.272;11.562;2023-02-21T08:52:41;11.00;99.90
4604;DHT22;2314;48.272;11.562;2023-02-21T08:55:08;10.70;99.90
4604;DHT22;2314;48.272;11.562;2023-02-21T08:57:36;10.50;99.90
4604;DHT22;2314;48.272;11.562;2023-02-21T09:00:04;10.30;99.90
4604;DHT22;2314;48.272;11.562;2023-02-21T09:02:37;10.20;99.90
4604;DHT22;2314;48.272;11.562;2023-02-21T09:05:06;10.00;99.90
4604;DHT22;2314;48.272;11.562;2023-02-21T09:07:34;10.10;99.90
4604;DHT22;2314;48.272;11.562;2023-02-21T09:10:02;10.00;99.90
4604;DHT22;2314;48.272;11.562;2023-02-21T09:12:32;10.10;99.90
4604;DHT22;2314;48.272;11.562;2023-02-21T09:14:59;10.40;99.90
4604;DHT22;2314;48.272;11.562;2023-02-21T09:17:26;10.30;99.90
4604;DHT22;2314;48.272;11.562;2023-02-21T09:19:55;10.20;99.90
4604;DHT22;2314;48.272;11.562;2023-02-21T09:22:26;10.20;99.90
4604;DHT22;2314;48.272;11.562;2023-02-21T09:24:56;10.10;99.90
4604;DHT22;2314;48.272;11.562;2023-02-21T09:27:24;10.10;99.90
4604;DHT22;2314;48.272;11.562;2023-02-21T09:30:03;10.20;99.90
4604;DHT22;2314;48.272;11.562;2023-02-21T09:32:31;10.10;99.90
4604;DHT22;2314;48.272;11.562;2023-02-21T09:35:00;10.10;99.90
4604;DHT22;2314;48.272;11.562;2023-02-21T09:37:27;10.10;99.90
4604;DHT22;2314;48.272;11.562;2023-02-21T09:39:54;10.10;99.90
4604;DHT22;2314;48.272;11.562;2023-02-21T09:42:26;10.20;99.90
4604;DHT22;2314;48.272;11.562;2023-02-21T09:44:55;10.30;99.90
4604;DHT22;2314;48.272;11.562;2023-02-21T09:47:26;10.30;99.90
4604;DHT22;2314;48.272;11.562;2023-02-21T09:50:00;10.40;99.90
4604;DHT22;2314;48.272;11.562;2023-02-21T09:52:32;10.40;99.90
4604;DHT22;2314;48.272;11.562;2023-02-21T09:55:04;10.60;99.90
4604;DHT22;2314;48.272;11.562;2023-02-21T09:57:35;10.70;99.90
4604;DHT22;2314;48.272;11.562;2023-02-21T10:00:14;10.90;99.90
4604;DHT22;2314;48.272;11.562;2023-02-21T10:02:52;11.00;99.90
4604;DHT22;2314;48.272;11.562;2023-02-21T10:05:29;11.30;99.90
4604;DHT22;2314;48.272;11.562;2023-02-21T10:08:07;11.50;99.90
4604;DHT22;2314;48.272;11.562;2023-02-21T10:10:42;11.90;99.90
4604;DHT22;2314;48.272;11.562;2023-02-21T10:13:25;12.00;99.90
4604;DHT22;2314;48.272;11.562;2023-02-21T10:16:03;12.30;99.90
4604;DHT22;2314;48.272;11.562;2023-02-21T10:18:35;12.50;99.90
4604;DHT22;2314;48.272;11.562;2023-02-21T10:21:11;12.70;99.90
4604;DHT22;2314;48.272;11.562;2023-02-21T10:23:43;12.70;99.90
4604;DHT22;2314;48.272;11.562;2023-02-21T10:26:15;12.80;99.90
4604;DHT22;2314;48.272;11.562;2023-02-21T10:28:45;12.90;99.90
4604;DHT22;2314;48.272;11.562;2023-02-21T10:31:16;13.10;99.90
4604;DHT22;2314;48.272;11.562;2023-02-21T10:33:46;13.10;99.90
4604;DHT22;2314;48.272;11.562;2023-02-21T10:36:17;13.00;99.90
4604;DHT22;2314;48.272;11.562;2023-02-21T10:38:53;13.10;99.90
4604;DHT22;2314;48.272;11.562;2023-02-21T10:41:23;13.60;99.90
4604;DHT22;2314;48.272;11.562;2023-02-21T10:43:59;13.50;99.90
4604;DHT22;2314;48.272;11.562;2023-02-21T10:46:32;13.50;99.90
4604;DHT22;2314;48.272;11.562;2023-02-21T10:49:16;13.70;99.30
4604;DHT22;2314;48.272;11.562;2023-02-21T10:52:03;13.60;99.50
4604;DHT22;2314;48.272;11.562;2023-02-21T10:54:31;13.70;99.50
4604;DHT22;2314;48.272;11.562;2023-02-21T10:56:59;13.70;99.00
4604;DHT22;2314;48.272;11.562;2023-02-21T10:59:29;13.70;99.00
4604;DHT22;2314;48.272;11.562;2023-02-21T11:01:58;13.90;98.60
4604;DHT22;2314;48.272;11.562;2023-02-21T11:04:28;14.00;98.90
4604;DHT22;2314;48.272;11.562;2023-02-21T11:07:02;14.00;98.50
4604;DHT22;2314;48.272;11.562;2023-02-21T11:09:37;14.00;97.70
4604;DHT22;2314;48.272;11.562;2023-02-21T11:12:21;14.00;98.40
4604;DHT22;2314;48.272;11.562;2023-02-21T11:15:09;14.40;99.10
4604;DHT22;2314;48.272;11.562;2023-02-21T11:17:42;14.40;98.40
4604;DHT22;2314;48.272;11.562;2023-02-21T11:20:17;14.70;98.10
4604;DHT22;2314;48.272;11.562;2023-02-21T11:22:48;14.90;97.10
4604;DHT22;2314;48.272;11.562;2023-02-21T11:25:20;14.80;97.20
4604;DHT22;2314;48.272;11.562;2023-02-21T11:28:16;14.70;97.70
4604;DHT22;2314;48.272;11.562;2023-02-21T11:30:49;15.00;96.20
4604;DHT22;2314;48.272;11.562;2023-02-21T11:33:19;14.80;95.80
4604;DHT22;2314;48.272;11.562;2023-02-21T11:35:48;14.90;96.40
4604;DHT22;2314;48.272;11.562;2023-02-21T11:38:32;14.70;96.00
4604;DHT22;2314;48.272;11.562;2023-02-21T11:41:01;14.60;97.70
4604;DHT22;2314;48.272;11.562;2023-02-21T11:43:30;14.90;96.40
4604;DHT22;2314;48.272;11.562;2023-02-21T11:46:16;14.70;97.70
4604;DHT22;2314;48.272;11.562;2023-02-21T11:48:53;14.80;96.10
4604;DHT22;2314;48.272;11.562;2023-02-21T11:51:32;15.00;98.20
4604;DHT22;2314;48.272;11.562;2023-02-21T11:54:04;15.20;96.30
4604;DHT22;2314;48.272;11.562;2023-02-21T11:56:45;15.30;95.30
4604;DHT22;2314;48.272;11.562;2023-02-21T11:59:24;15.30;95.20
4604;DHT22;2314;48.272;11.562;2023-02-21T12:05:17;15.60;95.30
4604;DHT22;2314;48.272;11.562;2023-02-21T12:08:14;15.40;94.70
4604;DHT22;2314;48.272;11.562;2023-02-21T12:10:59;15.60;95.00
4604;DHT22;2314;48.272;11.562;2023-02-21T12:13:40;15.70;94.80
4604;DHT22;2314;48.272;11.562;2023-02-21T12:16:19;15.50;95.20
4604;DHT22;2314;48.272;11.562;2023-02-21T12:19:00;15.50;95.30
4604;DHT22;2314;48.272;11.562;2023-02-21T12:21:57;15.30;96.10
4604;DHT22;2314;48.272;11.562;2023-02-21T12:24:47;15.50;95.10
4604;DHT22;2314;48.272;11.562;2023-02-21T12:27:30;15.30;95.50
4604;DHT22;2314;48.272;11.562;2023-02-21T12:30:10;15.40;94.70
4604;DHT22;2314;48.272;11.562;2023-02-21T12:32:58;15.50;96.40
4604;DHT22;2314;48.272;11.562;2023-02-21T12:35:42;15.70;95.20
4604;DHT22;2314;48.272;11.562;2023-02-21T12:38:26;15.80;94.70
4604;DHT22;2314;48.272;11.562;2023-02-21T12:41:03;16.00;93.60
4604;DHT22;2314;48.272;11.562;2023-02-21T12:43:49;15.80;94.00
4604;DHT22;2314;48.272;11.562;2023-02-21T12:46:24;15.70;93.70
4604;DHT22;2314;48.272;11.562;2023-02-21T12:48:57;15.70;94.40
4604;DHT22;2314;48.272;11.562;2023-02-21T12:51:33;15.90;93.70
4604;DHT22;2314;48.272;11.562;2023-02-21T12:54:05;15.90;93.20
4604;DHT22;2314;48.272;11.562;2023-02-21T12:56:40;16.20;92.70
4604;DHT22;2314;48.272;11.562;2023-02-21T12:59:15;15.80;93.30
4604;DHT22;2314;48.272;11.562;2023-02-21T13:01:48;15.80;93.40
4604;DHT22;2314;48.272;11.562;2023-02-21T13:04:26;15.80;93.90
4604;DHT22;2314;48.272;11.562;2023-02-21T13:07:03;15.90;93.20
4604;DHT22;2314;48.272;11.562;2023-02-21T13:09:38;15.60;93.40
4604;DHT22;2314;48.272;11.562;2023-02-21T13:12:10;15.80;93.00
4604;DHT22;2314;48.272;11.562;2023-02-21T13:14:47;15.90;92.20
4604;DHT22;2314;48.272;11.562;2023-02-21T13:17:17;15.80;93.70
4604;DHT22;2314;48.272;11.562;2023-02-21T13:19:48;15.90;93.50
4604;DHT22;2314;48.272;11.562;2023-02-21T13:26:12;15.70;93.40
4604;DHT22;2314;48.272;11.562;2023-02-21T13:28:50;15.70;93.30
4604;DHT22;2314;48.272;11.562;2023-02-21T13:31:22;16.00;94.10
4604;DHT22;2314;48.272;11.562;2023-02-21T13:33:51;16.20;93.30
4604;DHT22;2314;48.272;11.562;2023-02-21T13:36:23;16.20;94.40
4604;DHT22;2314;48.272;11.562;2023-02-21T13:39:01;16.40;93.70
4604;DHT22;2314;48.272;11.562;2023-02-21T13:41:33;16.20;93.30
4604;DHT22;2314;48.272;11.562;2023-02-21T13:44:05;16.20;93.60
4604;DHT22;2314;48.272;11.562;2023-02-21T13:46:59;16.10;93.70
4604;DHT22;2314;48.272;11.562;2023-02-21T13:49:53;15.90;94.90
4604;DHT22;2314;48.272;11.562;2023-02-21T13:55:30;15.90;94.00
4604;DHT22;2314;48.272;11.562;2023-02-21T14:01:18;16.00;93.70
4604;DHT22;2314;48.272;11.562;2023-02-21T14:03:51;16.00;93.60
4604;DHT22;2314;48.272;11.562;2023-02-21T14:06:33;15.90;94.40
4604;DHT22;2314;48.272;11.562;2023-02-21T14:09:11;15.90;93.90
4604;DHT22;2314;48.272;11.562;2023-02-21T14:11:45;15.90;94.10
4604;DHT22;2314;48.272;11.562;2023-02-21T14:14:26;15.90;93.90
4604;DHT22;2314;48.272;11.562;2023-02-21T14:16:59;15.90;94.20
4604;DHT22;2314;48.272;11.562;2023-02-21T14:19:34;15.90;93.50
4604;DHT22;2314;48.272;11.562;2023-02-21T14:22:08;15.80;94.40
4604;DHT22;2314;48.272;11.562;2023-02-21T14:24:40;15.80;94.00
4604;DHT22;2314;48.272;11.562;2023-02-21T14:27:30;15.80;93.90
4604;DHT22;2314;48.272;11.562;2023-02-21T14:30:28;15.70;93.30
4604;DHT22;2314;48.272;11.562;2023-02-21T14:33:21;15.70;93.90
4604;DHT22;2314;48.272;11.562;2023-02-21T14:35:58;15.80;94.10
4604;DHT22;2314;48.272;11.562;2023-02-21T14:38:40;15.70;95.60
4604;DHT22;2314;48.272;11.562;2023-02-21T14:41:19;15.60;95.20
4604;DHT22;2314;48.272;11.562;2023-02-21T14:44:08;15.50;94.90
4604;DHT22;2314;48.272;11.562;2023-02-21T14:47:14;15.50;94.50
4604;DHT22;2314;48.272;11.562;2023-02-21T14:49:59;15.40;95.20
4604;DHT22;2314;48.272;11.562;2023-02-21T14:53:05;15.40;94.30
4604;DHT22;2314;48.272;11.562;2023-02-21T14:56:15;15.40;95.30
4604;DHT22;2314;48.272;11.562;2023-02-21T14:59:20;15.30;95.10
4604;DHT22;2314;48.272;11.562;2023-02-21T15:02:03;15.40;95.80
4604;DHT22;2314;48.272;11.562;2023-02-21T15:04:45;15.30;95.40
4604;DHT22;2314;48.272;11.562;2023-02-21T15:07:25;15.20;94.70
4604;DHT22;2314;48.272;11.562;2023-02-21T15:10:13;15.10;95.00
4604;DHT22;2314;48.272;11.562;2023-02-21T15:12:44;15.10;94.90
4604;DHT22;2314;48.272;11.562;2023-02-21T15:15:16;15.00;95.00
4604;DHT22;2314;48.272;11.562;2023-02-21T15:17:54;15.00;95.50
4604;DHT22;2314;48.272;11.562;2023-02-21T15:20:27;14.90;94.70
4604;DHT22;2314;48.272;11.562;2023-02-21T15:22:57;14.90;95.70
4604;DHT22;2314;48.272;11.562;2023-02-21T15:25:28;14.80;95.70
4604;DHT22;2314;48.272;11.562;2023-02-21T15:28:00;14.80;95.60
4604;DHT22;2314;48.272;11.562;2023-02-21T15:30:33;14.70;95.40
4604;DHT22;2314;48.272;11.562;2023-02-21T15:33:06;14.70;95.80
4604;DHT22;2314;48.272;11.562;2023-02-21T15:35:40;14.60;95.90
4604;DHT22;2314;48.272;11.562;2023-02-21T15:38:14;14.50;97.20
4604;DHT22;2314;48.272;11.562;2023-02-21T15:40:46;14.40;97.10
4604;DHT22;2314;48.272;11.562;2023-02-21T15:43:27;14.30;97.20
4604;DHT22;2314;48.272;11.562;2023-02-21T15:45:59;14.20;97.30
4604;DHT22;2314;48.272;11.562;2023-02-21T15:48:27;14.10;97.30
4604;DHT22;2314;48.272;11.562;2023-02-21T15:51:00;14.00;98.10
4604;DHT22;2314;48.272;11.562;2023-02-21T15:53:28;13.80;98.80
4604;DHT22;2314;48.272;11.562;2023-02-21T15:56:15;13.70;98.30
4604;DHT22;2314;48.272;11.562;2023-02-21T15:59:06;13.60;98.50
4604;DHT22;2314;48.272;11.562;2023-02-21T16:01:34;13.40;98.50
4604;DHT22;2314;48.272;11.562;2023-02-21T16:04:18;13.40;99.20
4604;DHT22;2314;48.272;11.562;2023-02-21T16:06:52;13.30;99.40
4604;DHT22;2314;48.272;11.562;2023-02-21T16:09:26;13.10;99.50
4604;DHT22;2314;48.272;11.562;2023-02-21T16:11:59;13.10;99.90
4604;DHT22;2314;48.272;11.562;2023-02-21T16:14:37;12.90;99.90
4604;DHT22;2314;48.272;11.562;2023-02-21T16:17:26;12.80;99.90
4604;DHT22;2314;48.272;11.562;2023-02-21T16:19:55;12.70;99.90
4604;DHT22;2314;48.272;11.562;2023-02-21T16:22:29;12.50;99.90
4604;DHT22;2314;48.272;11.562;2023-02-21T16:25:13;12.30;99.90
4604;DHT22;2314;48.272;11.562;2023-02-21T16:27:45;12.00;99.90
4604;DHT22;2314;48.272;11.562;2023-02-21T16:30:16;11.90;99.90
4604;DHT22;2314;48.272;11.562;2023-02-21T16:32:46;11.70;99.90
4604;DHT22;2314;48.272;11.562;2023-02-21T16:35:17;11.60;99.90
4604;DHT22;2314;48.272;11.562;2023-02-21T16:37:47;11.40;99.90
4604;DHT22;2314;48.272;11.562;2023-02-21T16:40:17;11.10;99.90
4604;DHT22;2314;48.272;11.562;2023-02-21T16:42:49;10.90;99.90
4604;DHT22;2314;48.272;11.562;2023-02-21T16:45:17;10.80;99.90
4604;DHT22;2314;48.272;11.562;2023-02-21T16:47:44;10.60;99.90
4604;DHT22;2314;48.272;11.562;2023-02-21T16:50:25;10.40;99.90
4604;DHT22;2314;48.272;11.562;2023-02-21T16:52:53;10.30;99.90
4604;DHT22;2314;48.272;11.562;2023-02-21T16:55:21;10.20;99.90
4604;DHT22;2314;48.272;11.562;2023-02-21T16:57:50;10.10;99.90
4604;DHT22;2314;48.272;11.562;2023-02-21T17:00:20;10.00;99.90
4604;DHT22;2314;48.272;11.562;2023-02-21T17:02:47;9.90;99.90